PDT,Max TemperatureF,Mean TemperatureF,Min TemperatureF,Max Dew PointF,MeanDew PointF,Min DewpointF,Max Humidity, Mean Humidity, Min Humidity, Max Sea Level PressureIn, Mean Sea Level PressureIn, Min Sea Level PressureIn, Max VisibilityMiles, Mean VisibilityMiles, Min VisibilityMiles, Max Wind SpeedMPH, Mean Wind SpeedMPH, Max Gust SpeedMPH,PrecipitationIn, CloudCover, Events, WindDirDegrees
2012-10-1,67,55,44,52,49,45,95,76,42,30.39,30.25,30.09,,,,6,2,,0.00,,,48
2012-10-2,61,52,44,47,42,38,90,69,32,30.36,30.22,30.13,,,,8,4,,0.00,,,116
2012-10-3,68,50,33,43,33,22,95,60,17,30.46,30.39,30.33,,,,9,2,,0.00,,,299
2012-10-4,70,51,32,40,34,25,95,63,16,30.36,30.32,30.27,,,,8,1,,0.00,,,270
2012-10-5,72,54,35,44,36,27,95,60,18,30.35,30.30,30.25,,,,9,2,,0.00,,,272
2012-10-6,71,54,36,42,38,35,95,62,20,30.30,30.23,30.15,,,,7,1,,0.00,,,240
2012-10-7,73,56,38,47,43,37,95,71,27,30.16,30.06,29.94,,,,4,1,,0.00,,,213
2012-10-8,72,55,38,49,44,38,96,74,29,30.02,29.97,29.94,,,,6,1,,0.00,,,221
2012-10-9,60,49,38,49,45,37,96,87,58,30.15,30.09,30.04,,,,5,1,,0.00,,,174
2012-10-10,52,44,37,50,45,37,97,94,84,30.07,30.04,30.01,,,,4,1,,0.00,,,149
2012-10-11,52,50,47,47,47,46,95,88,76,30.04,29.95,29.83,,,,4,1,,0.00,,,175
2012-10-12,52,50,48,51,49,46,97,94,87,29.94,29.89,29.82,,,,7,3,,0.31,,,36
2012-10-13,60,54,49,58,54,52,97,95,89,30.10,30.06,29.96,,,,8,2,,0.39,,,92
2012-10-14,60,57,54,57,56,53,96,94,90,30.04,29.90,29.85,,,,9,4,20,0.71,,,162
2012-10-15,57,52,48,54,51,49,97,93,76,29.94,29.76,29.47,,,,8,3,,0.24,,,72
2012-10-16,59,53,47,54,43,39,96,70,46,30.25,29.93,29.49,,,,15,5,26,0.00,,,221
2012-10-17,55,48,41,46,44,41,93,82,61,30.34,30.29,30.24,,,,5,1,,0.00,,,75
2012-10-18,52,50,47,49,46,43,96,89,71,30.24,30.01,29.76,,,,12,2,18,1.10,,,9
2012-10-19,56,50,45,54,48,41,96,84,59,29.77,29.72,29.65,,,,12,5,22,0.20,,,179
2012-10-20,49,44,40,43,38,35,92,73,51,29.87,29.83,29.74,,,,9,4,,0.01,,,181
2012-10-21,46,41,36,43,39,36,95,88,70,29.91,29.87,29.85,,,,8,4,,0.12,,,70
2012-10-22,53,42,32,36,33,28,95,66,33,29.83,29.68,29.60,,,,12,4,,0.00,,,40
2012-10-23,46,43,40,43,40,39,95,91,82,29.93,29.84,29.69,,,,7,3,,0.16,,,89
2012-10-24,46,42,37,40,38,34,90,81,69,30.19,30.04,29.90,,,,7,3,,0.00,,,77
2012-10-25,52,43,34,40,38,34,98,80,50,30.43,30.38,30.21,,,,4,1,,0.00,,,133
2012-10-26,47,44,41,44,42,38,94,88,76,30.38,30.19,30.06,,,,9,4,,0.08,,,35
2012-10-27,47,44,42,46,44,43,97,96,93,30.06,29.93,29.76,,,,9,2,18,0.51,,,29
2012-10-28,56,50,44,52,47,44,97,89,69,29.94,29.88,29.78,,,,8,4,,0.24,,,47
2012-10-29,57,52,47,53,49,46,96,91,69,29.96,29.85,29.72,,,,10,4,18,0.35,,,112
2012-10-30,55,52,48,52,51,49,96,95,90,29.93,29.86,29.77,,,,7,3,,0.39,,,69
2012-10-31,54,52,49,53,51,49,97,96,92,29.78,29.69,29.60,,,,9,1,,0.79,,,88